Airfield :
LOGIN :

Register | Disclaimer

   EN    FR    IT 

 










Legend :    VFR   Marginal VFR   IFR   Intensive IFR   Very Intensive IFR
Visi :
Ceiling :
>= 8 km
>= 3000ft
5 to 8 km
1000 to 3000 ft
1500m to 5 km
500 to 1000 ft
800 to 1500m
200 to 500 ft
< 800m
< 200 ft
Symbols :   Thunderstorms  Fog  Heavy snow  Heavy precipitations  Wind > 20 kt
SIGMETs :     Misc.  Thunderstorms  Icing  Turbulence  Mountain Waves  Volcanic Ashes







- Airport Elevation : 313 ft
- IATA code : LEH
- Download approach charts


LFOH - Le Havre Octeville

CURRENT METAR :
  • 192300Z AUTO 20011KT 160V230 CAVOK 19/15 Q1018

EXPIRED METARs :
  • 192230Z AUTO 20010KT CAVOK 19/15 Q1018
  • 192200Z AUTO 20009KT CAVOK 19/15 Q1018
  • 192130Z AUTO 19009KT CAVOK 19/14 Q1018
  • 192100Z AUTO 20010KT CAVOK 20/14 Q1018
  • 192030Z AUTO 21009KT CAVOK 20/14 Q1018

TAF TAF LFOH
Valid from the 19 at 12:00 until the 20 at 12:00 UTC


191100Z 1912/2012 21015KT CAVOK
TEMPO 1912/1917 21015G25KT
BECMG 1917/1919 21010KT
TEMPO 2004/2007 BKN013
BECMG 2009/2011 19010G20KT
ATIS : +33 2 35 54 64 93
No reported NOTAMs for that airfield.



MET'MAP, your aeronautical weather chart ! - Copyright ORBIFLY December 2007 - Disclaimer

ORBIFLY MET'MAP TEAM :

Programming & Development : Alexandra Zaïnal
Concept & Development : Baudouin d'Aumeries
Co-Development & Prog : Marc-Olivier Méhu
Technical & hardware support : Manuel Goepfert

Contact : metmap@orbifly.com




SOURCES & CREDITS :

   NOAA